createdAt,value
2023-03-27T00:02:24.152Z,95339.69
2023-03-27T00:04:54.414Z,95384.22
2023-03-27T00:07:22.504Z,95374.94
2023-03-27T00:09:50.366Z,95369.69
2023-03-27T00:12:19.182Z,95387.03
2023-03-27T00:14:47.267Z,95383.75
2023-03-27T00:17:14.813Z,95384.75
2023-03-27T00:19:42.235Z,95398.94
2023-03-27T00:22:10.662Z,95409.59
2023-03-27T00:24:38.132Z,95413.38
2023-03-27T00:27:06.569Z,95419.13
2023-03-27T00:29:35.507Z,95423.13
2023-03-27T00:32:02.978Z,95420.97
2023-03-27T00:34:31.265Z,95429.63
2023-03-27T00:36:59.100Z,95423.34
2023-03-27T00:39:27.788Z,95441.50
2023-03-27T00:41:56.311Z,95443.88
2023-03-27T00:44:26.841Z,95436.97
2023-03-27T00:46:57.116Z,95447.44
2023-03-27T00:49:27.526Z,95431.47
2023-03-27T00:51:57.109Z,95432.25
2023-03-27T00:54:29.958Z,95446.84
2023-03-27T00:57:01.179Z,95456.69
2023-03-27T00:59:31.764Z,95454.75
2023-03-27T01:02:02.188Z,95461.03
2023-03-27T01:04:31.699Z,95452.75
2023-03-27T01:07:00.156Z,95466.78
2023-03-27T01:09:28.904Z,95473.47
2023-03-27T01:12:11.816Z,95477.22
2023-03-27T01:14:49.238Z,95477.22
2023-03-27T01:17:35.931Z,95492.41
2023-03-27T01:20:42.403Z,95505.44
2023-03-27T01:23:35.624Z,95494.00
2023-03-27T01:26:44.983Z,95514.28
2023-03-27T01:29:21.264Z,95512.31
2023-03-27T01:32:09.736Z,95514.69
2023-03-27T01:35:02.130Z,95511.53
2023-03-27T01:38:06.086Z,95519.63
2023-03-27T01:40:42.635Z,95521.97
2023-03-27T01:43:15.314Z,95521.78
2023-03-27T01:45:47.808Z,95523.56
2023-03-27T01:48:19.804Z,95537.94
2023-03-27T01:50:50.761Z,95537.78
2023-03-27T01:53:23.787Z,95533.44
2023-03-27T01:55:59.096Z,95540.31
2023-03-27T01:58:33.105Z,95536.59
2023-03-27T02:01:02.838Z,95531.25
2023-03-27T02:03:35.272Z,95542.69
2023-03-27T02:06:08.584Z,95541.50
2023-03-27T02:08:41.164Z,95528.88
2023-03-27T02:11:10.041Z,95544.06
2023-03-27T02:13:41.263Z,95541.31
2023-03-27T02:16:12.851Z,95557.50
2023-03-27T02:18:47.483Z,95559.63
2023-03-27T02:21:15.091Z,95555.09
2023-03-27T02:23:43.447Z,95556.31
2023-03-27T02:26:13.883Z,95567.91
2023-03-27T02:29:02.158Z,95582.91
2023-03-27T02:31:42.186Z,95589.22
2023-03-27T02:34:33.630Z,95588.22
2023-03-27T02:37:09.255Z,95596.13
2023-03-27T02:39:43.464Z,95595.53
2023-03-27T02:42:19.049Z,95606.59
2023-03-27T02:44:52.385Z,95608.72
2023-03-27T02:47:26.783Z,95608.72
2023-03-27T02:49:59.205Z,95615.66
2023-03-27T02:52:31.935Z,95626.13
2023-03-27T02:55:06.671Z,95626.50
2023-03-27T02:57:39.818Z,95637.56
2023-03-27T03:00:25.185Z,95644.06
2023-03-27T03:03:00.077Z,95638.34
2023-03-27T03:05:28.558Z,95613.41
2023-03-27T03:07:58.042Z,95628.25
2023-03-27T03:10:27.270Z,95657.25
2023-03-27T03:12:56.218Z,95660.97
2023-03-27T03:15:23.685Z,95648.16
2023-03-27T03:17:51.210Z,95669.84
2023-03-27T03:20:18.895Z,95665.34
2023-03-27T03:22:46.490Z,95680.13
2023-03-27T03:25:14.514Z,95668.44
2023-03-27T03:27:44.100Z,95685.84
2023-03-27T03:30:16.845Z,95687.19
2023-03-27T03:32:47.161Z,95687.41
2023-03-27T03:35:14.958Z,95688.19
2023-03-27T03:37:42.888Z,95689.56
2023-03-27T03:40:11.835Z,95704.56
2023-03-27T03:42:45.738Z,95704.34
2023-03-27T03:45:15.385Z,95711.47
2023-03-27T03:47:43.758Z,95719.34
2023-03-27T03:50:12.795Z,95708.47
2023-03-27T03:52:40.948Z,95710.06
2023-03-27T03:55:11.624Z,95719.53
2023-03-27T03:57:39.268Z,95709.28
2023-03-27T04:00:08.823Z,95725.03
2023-03-27T04:02:38.567Z,95718.88
2023-03-27T04:05:08.948Z,95735.47
2023-03-27T04:07:36.910Z,95737.88
2023-03-27T04:10:05.028Z,95743.91
2023-03-27T04:12:32.592Z,95745.47
2023-03-27T04:15:00.130Z,95747.59
2023-03-27T04:17:27.730Z,95737.50
2023-03-27T04:19:57.161Z,95758.00
2023-03-27T04:22:26.139Z,95765.31
2023-03-27T04:24:54.198Z,95769.69
2023-03-27T04:27:22.175Z,95764.94
2023-03-27T04:29:49.655Z,95774.66
2023-03-27T04:32:18.974Z,95770.72
2023-03-27T04:34:48.134Z,95773.28
2023-03-27T04:37:18.348Z,95785.13
2023-03-27T04:39:50.895Z,95778.22
2023-03-27T04:42:22.528Z,95794.25
2023-03-27T04:44:50.212Z,95785.97
2023-03-27T04:47:17.704Z,95795.47
2023-03-27T04:49:46.973Z,95801.13
2023-03-27T04:52:14.967Z,95796.22
2023-03-27T04:54:44.048Z,95798.56
2023-03-27T04:57:12.292Z,95800.16
2023-03-27T04:59:39.856Z,95810.63
2023-03-27T05:02:07.362Z,95804.59
2023-03-27T05:04:34.921Z,95818.38
2023-03-27T05:07:03.173Z,95808.47
2023-03-27T05:09:30.579Z,95826.69
2023-03-27T05:11:59.349Z,95833.00
2023-03-27T05:14:26.939Z,95808.72
2023-03-27T05:16:54.390Z,95829.91
2023-03-27T05:19:22.108Z,95819.72
2023-03-27T05:21:49.577Z,95835.53
2023-03-27T05:24:17.130Z,95840.47
2023-03-27T05:26:44.802Z,95836.94
2023-03-27T05:29:13.863Z,95837.72
2023-03-27T05:31:41.323Z,95833.16
2023-03-27T05:34:08.764Z,95818.28
2023-03-27T05:36:36.258Z,95862.38
2023-03-27T05:39:04.079Z,95860.28
2023-03-27T05:41:31.548Z,95861.88
2023-03-27T05:43:58.981Z,95855.03
2023-03-27T05:46:27.984Z,95834.13
2023-03-27T05:48:55.809Z,95864.31
2023-03-27T05:51:23.782Z,95876.75
2023-03-27T05:53:51.534Z,95877.97
2023-03-27T05:56:18.999Z,95886.88
2023-03-27T05:58:46.438Z,95891.00
2023-03-27T06:01:13.929Z,95892.00
2023-03-27T06:03:42.882Z,95877.72
2023-03-27T06:06:12.251Z,95860.47
2023-03-27T06:08:40.133Z,95909.78
2023-03-27T06:11:11.514Z,95914.75
2023-03-27T06:13:39.168Z,95912.78
2023-03-27T06:16:07.882Z,95918.13
2023-03-27T06:18:35.560Z,95911.03
2023-03-27T06:21:04.830Z,95921.47
2023-03-27T06:23:32.781Z,95919.56
2023-03-27T06:26:00.482Z,95930.00
2023-03-27T06:28:28.518Z,95928.28
2023-03-27T06:30:57.651Z,95933.03
2023-03-27T06:33:26.032Z,95934.84
2023-03-27T06:35:55.141Z,95932.09
2023-03-27T06:38:24.200Z,95938.44
2023-03-27T06:40:51.598Z,95944.56
2023-03-27T06:43:22.236Z,95940.25
2023-03-27T06:45:51.673Z,95954.84
2023-03-27T06:48:22.085Z,95958.97
2023-03-27T06:50:52.795Z,95963.34
2023-03-27T06:55:52.355Z,95958.53
2023-03-27T06:58:19.844Z,95958.78
2023-03-27T07:00:49.675Z,95962.97
2023-03-27T07:03:18.890Z,95960.44
2023-03-27T07:05:46.514Z,95965.34
2023-03-27T07:10:56.267Z,95972.88
2023-03-27T07:13:35.831Z,95985.72
2023-03-27T07:16:03.768Z,95991.88
2023-03-27T07:18:31.378Z,95994.06
2023-03-27T07:20:59.128Z,95991.47
2023-03-27T07:23:27.189Z,95997.34
2023-03-27T07:25:58.523Z,96010.13
2023-03-27T07:28:26.251Z,96011.47
2023-03-27T07:30:55.401Z,96009.28
2023-03-27T07:33:26.090Z,96007.44
2023-03-27T07:35:53.645Z,96024.44
2023-03-27T07:38:21.173Z,96030.81
2023-03-27T07:40:50.266Z,96032.22
2023-03-27T07:43:17.778Z,96039.88
2023-03-27T07:45:45.249Z,96028.75
2023-03-27T07:48:15.994Z,96041.81
2023-03-27T07:50:43.557Z,96040.06
2023-03-27T07:53:32.675Z,96037.88
2023-03-27T07:55:59.604Z,96047.78
2023-03-27T07:58:27.381Z,96040.91
2023-03-27T08:00:55.131Z,96043.50
2023-03-27T08:03:25.910Z,96052.91
2023-03-27T08:05:55.066Z,96059.84
2023-03-27T08:08:25.708Z,96057.06
2023-03-27T08:10:55.396Z,96061.50
2023-03-27T08:13:26.420Z,96054.63
2023-03-27T08:16:03.651Z,96050.03
2023-03-27T08:18:32.404Z,96072.09
2023-03-27T08:21:03.069Z,96078.03
2023-03-27T08:23:32.522Z,96076.94
2023-03-27T08:26:00.566Z,96074.22
2023-03-27T08:28:28.751Z,96074.59
2023-03-27T08:31:02.977Z,96080.94
2023-03-27T08:33:32.162Z,96086.47
2023-03-27T08:35:59.803Z,96084.69
2023-03-27T08:38:29.173Z,96070.06
2023-03-27T08:40:58.935Z,96041.13
2023-03-27T08:43:29.475Z,96082.16
2023-03-27T08:46:01.759Z,96080.34
2023-03-27T08:48:36.499Z,96100.09
2023-03-27T08:51:07.302Z,96092.59
2023-03-27T08:53:40.933Z,96088.81
2023-03-27T08:56:13.771Z,96112.25
2023-03-27T08:58:41.654Z,96105.13
2023-03-27T09:01:14.538Z,96111.13
2023-03-27T09:03:48.661Z,96103.19
2023-03-27T09:06:25.672Z,96116.66
2023-03-27T09:09:01.032Z,96106.41
2023-03-27T09:11:38.370Z,96119.69
2023-03-27T09:14:13.765Z,96126.63
2023-03-27T09:16:48.976Z,96120.50
2023-03-27T09:19:28.434Z,96122.38
2023-03-27T09:22:01.049Z,96122.38
2023-03-27T09:24:32.868Z,96131.03
2023-03-27T09:27:07.269Z,96140.16
2023-03-27T09:29:40.266Z,96134.56
2023-03-27T09:32:13.988Z,96139.38
2023-03-27T09:34:43.882Z,96135.69
2023-03-27T09:37:16.266Z,96150.97
2023-03-27T09:39:49.585Z,96138.13
2023-03-27T09:42:23.875Z,96139.53
2023-03-27T09:44:56.029Z,96150.41
2023-03-27T09:47:31.613Z,96152.72
2023-03-27T09:50:19.585Z,96145.84
2023-03-27T09:52:46.988Z,96154.59
2023-03-27T09:55:25.282Z,96153.81
2023-03-27T09:57:58.685Z,96154.00
2023-03-27T10:00:30.845Z,96160.69
2023-03-27T10:03:05.538Z,96155.19
2023-03-27T10:05:35.480Z,96153.81
2023-03-27T10:08:10.071Z,96167.66
2023-03-27T10:10:41.985Z,96178.56
2023-03-27T10:13:13.912Z,96171.41
2023-03-27T10:15:42.416Z,96169.81
2023-03-27T10:18:28.047Z,96154.81
2023-03-27T10:20:59.689Z,96165.31
2023-03-27T10:23:28.776Z,96172.06
2023-03-27T10:26:01.338Z,96160.19
2023-03-27T10:28:30.713Z,96165.34
2023-03-27T10:30:59.893Z,96169.47
2023-03-27T10:33:31.734Z,96169.88
2023-03-27T10:36:01.291Z,96174.84
2023-03-27T10:38:28.913Z,96178.81
2023-03-27T10:40:57.701Z,96185.53
2023-03-27T10:43:31.301Z,96188.31
2023-03-27T10:46:04.362Z,96199.03
2023-03-27T10:48:42.721Z,96184.50
2023-03-27T10:51:33.157Z,96169.59
2023-03-27T10:54:16.337Z,96156.56
2023-03-27T10:56:54.358Z,96188.78
2023-03-27T10:59:38.343Z,96188.34
2023-03-27T11:02:15.914Z,96176.81
2023-03-27T11:04:48.947Z,96186.56
2023-03-27T11:07:23.060Z,96206.47
2023-03-27T11:10:03.052Z,96173.81
2023-03-27T11:12:34.204Z,96199.56
2023-03-27T11:15:09.071Z,96147.00
2023-03-27T11:17:42.390Z,96203.78
2023-03-27T11:20:21.086Z,96201.78
2023-03-27T11:22:56.991Z,96214.75
2023-03-27T11:25:34.462Z,96212.78
2023-03-27T11:28:11.958Z,96206.09
2023-03-27T11:30:51.751Z,96203.47
2023-03-27T11:33:32.443Z,96205.50
2023-03-27T11:36:13.730Z,96183.13
2023-03-27T11:38:51.234Z,96173.22
2023-03-27T11:41:18.943Z,96211.50
2023-03-27T11:43:47.704Z,96190.31
2023-03-27T11:46:36.930Z,96218.78
2023-03-27T11:49:23.271Z,96229.69
2023-03-27T11:52:03.818Z,96224.41
2023-03-27T11:54:53.751Z,96249.59
2023-03-27T11:57:24.676Z,96251.19
2023-03-27T12:00:17.296Z,96251.56
2023-03-27T12:03:06.750Z,96262.41
2023-03-27T12:05:44.533Z,96248.44
2023-03-27T12:08:21.685Z,96232.06
2023-03-27T12:10:54.878Z,96261.53
2023-03-27T12:13:58.161Z,96246.50
2023-03-27T12:16:57.466Z,96239.78
2023-03-27T12:19:45.197Z,96254.06
2023-03-27T12:22:24.886Z,96255.09
2023-03-27T12:25:15.411Z,96243.44
2023-03-27T12:28:01.322Z,96225.97
2023-03-27T12:30:39.672Z,96242.06
2023-03-27T12:33:43.389Z,96246.63
2023-03-27T12:36:14.932Z,96237.50
2023-03-27T12:38:44.301Z,96256.13
2023-03-27T12:41:21.596Z,96231.44
2023-03-27T12:43:55.946Z,96242.06
2023-03-27T12:46:36.268Z,96252.25
2023-03-27T12:49:34.199Z,96252.91
2023-03-27T12:52:08.316Z,96248.50
2023-03-27T12:54:38.468Z,96241.72
2023-03-27T12:57:08.726Z,96267.75
2023-03-27T12:59:40.874Z,96272.38
2023-03-27T13:02:38.205Z,96265.44
2023-03-27T13:05:36.811Z,96277.34
2023-03-27T13:08:38.516Z,96284.72
2023-03-27T13:11:18.954Z,96278.34
2023-03-27T13:14:07.449Z,96272.81
2023-03-27T13:16:49.731Z,96247.78
2023-03-27T13:19:32.225Z,96274.97
2023-03-27T13:22:13.727Z,96272.78
2023-03-27T13:24:58.500Z,96268.00
2023-03-27T13:27:39.874Z,96267.59
2023-03-27T13:30:30.476Z,96269.59
2023-03-27T13:33:14.451Z,96264.00
2023-03-27T13:35:53.518Z,96268.47
2023-03-27T13:39:08.848Z,96273.78
2023-03-27T13:41:59.898Z,96277.72
2023-03-27T13:44:40.116Z,96275.81
2023-03-27T13:47:23.007Z,96275.94
2023-03-27T13:50:14.258Z,96273.25
2023-03-27T13:53:12.036Z,96271.66
2023-03-27T13:56:00.319Z,96270.97
2023-03-27T13:58:44.513Z,96257.72
2023-03-27T14:01:28.320Z,96258.13
2023-03-27T14:04:18.905Z,96263.28
2023-03-27T14:07:12.430Z,96244.34
2023-03-27T14:09:54.650Z,96260.28
2023-03-27T14:12:31.582Z,96260.34
2023-03-27T14:15:26.810Z,96267.34
2023-03-27T14:18:05.539Z,96255.78
2023-03-27T14:20:39.205Z,96249.41
2023-03-27T14:23:16.414Z,96282.75
2023-03-27T14:25:47.665Z,96295.56
2023-03-27T14:28:31.444Z,96281.41
2023-03-27T14:31:01.026Z,96298.16
2023-03-27T14:33:28.938Z,96287.09
2023-03-27T14:35:58.283Z,96299.19
2023-03-27T14:38:30.785Z,96307.09
2023-03-27T14:41:00.259Z,96301.28
2023-03-27T14:43:29.861Z,96296.56
2023-03-27T14:46:00.782Z,96303.28
2023-03-27T14:48:33.360Z,96321.50
2023-03-27T14:51:04.368Z,96320.53
2023-03-27T14:53:36.605Z,96326.63
2023-03-27T14:56:12.707Z,96319.84
2023-03-27T14:58:45.718Z,96321.94
2023-03-27T15:01:16.939Z,96322.78
2023-03-27T15:03:45.805Z,96327.56
2023-03-27T15:06:15.344Z,96331.16
2023-03-27T15:08:49.794Z,96328.91
2023-03-27T15:11:20.600Z,96277.47
2023-03-27T15:13:48.297Z,96319.47
2023-03-27T15:16:20.661Z,96324.97
2023-03-27T15:19:00.277Z,96320.31
2023-03-27T15:21:38.903Z,96331.94
2023-03-27T15:24:11.079Z,96328.28
2023-03-27T15:26:39.077Z,96325.06
2023-03-27T15:29:13.705Z,96324.09
2023-03-27T15:31:44.190Z,96302.25
2023-03-27T15:34:20.979Z,96323.19
2023-03-27T15:36:56.530Z,96284.81
2023-03-27T15:39:26.450Z,96326.53
2023-03-27T15:41:57.211Z,96332.69
2023-03-27T15:44:31.539Z,96329.47
2023-03-27T15:47:00.954Z,96328.94
2023-03-27T15:49:31.780Z,96338.88
2023-03-27T15:52:01.386Z,96316.66
2023-03-27T15:54:34.871Z,96336.31
2023-03-27T15:57:09.979Z,96342.63
2023-03-27T15:59:51.686Z,96332.91
2023-03-27T16:02:23.172Z,96362.88
2023-03-27T16:04:53.390Z,96349.59
2023-03-27T16:07:25.127Z,96342.25
2023-03-27T16:09:56.444Z,96363.69
2023-03-27T16:12:30.057Z,96356.13
2023-03-27T16:14:58.523Z,96368.63
2023-03-27T16:17:32.332Z,96364.47
2023-03-27T16:20:02.185Z,96363.66
2023-03-27T16:22:32.052Z,96359.09
2023-03-27T16:25:02.911Z,96361.25
2023-03-27T16:27:34.896Z,96371.56
2023-03-27T16:30:02.467Z,96370.00
2023-03-27T16:32:30.204Z,96374.75
2023-03-27T16:34:57.679Z,96377.34
2023-03-27T16:37:27.393Z,96370.56
2023-03-27T16:39:55.273Z,96366.03
2023-03-27T16:42:26.564Z,96370.94
2023-03-27T16:44:54.906Z,96375.47
2023-03-27T16:47:24.532Z,96377.25
2023-03-27T16:50:08.114Z,96392.69
2023-03-27T16:52:38.869Z,96394.44
2023-03-27T16:55:07.945Z,96373.84
2023-03-27T16:57:37.022Z,96404.53
2023-03-27T17:00:06.348Z,96426.91
2023-03-27T17:02:36.272Z,96424.56
2023-03-27T17:05:04.226Z,96412.50
2023-03-27T17:07:31.841Z,96431.53
2023-03-27T17:09:59.336Z,96441.81
2023-03-27T17:12:28.574Z,96443.16
2023-03-27T17:14:58.058Z,96438.38
2023-03-27T17:17:27.223Z,96441.94
2023-03-27T17:19:54.924Z,96451.34
2023-03-27T17:22:22.429Z,96446.69
2023-03-27T17:24:56.657Z,96447.78
2023-03-27T17:27:26.392Z,96465.25
2023-03-27T17:29:55.355Z,96467.09
2023-03-27T17:32:25.475Z,96464.59
2023-03-27T17:34:53.788Z,96466.91
2023-03-27T17:37:22.034Z,96463.31
2023-03-27T17:39:49.745Z,96478.72
2023-03-27T17:42:17.452Z,96488.66
2023-03-27T17:44:45.674Z,96469.44
2023-03-27T17:47:13.637Z,96462.28
2023-03-27T17:49:43.286Z,96483.19
2023-03-27T17:52:11.907Z,96480.88
2023-03-27T17:54:40.186Z,96489.47
2023-03-27T17:57:07.900Z,96486.22
2023-03-27T17:59:36.361Z,96492.41
2023-03-27T18:02:04.128Z,96494.97
2023-03-27T18:04:33.086Z,96443.91
2023-03-27T18:07:02.089Z,96500.09
2023-03-27T18:09:29.662Z,96464.06
2023-03-27T18:11:57.422Z,96492.06
2023-03-27T18:14:25.194Z,96482.50
2023-03-27T18:16:52.911Z,96480.00
2023-03-27T18:19:20.566Z,96473.97
2023-03-27T18:21:48.100Z,96502.69
2023-03-27T18:24:17.171Z,96499.91
2023-03-27T18:26:48.072Z,96462.91
2023-03-27T18:29:15.744Z,96516.66
2023-03-27T18:31:43.808Z,96483.13
2023-03-27T18:34:11.403Z,96513.31
2023-03-27T18:36:39.130Z,96516.22
2023-03-27T18:39:07.355Z,96521.72
2023-03-27T18:41:36.545Z,96502.06
2023-03-27T18:44:04.108Z,96534.03
2023-03-27T18:46:31.676Z,96532.97
2023-03-27T18:49:01.829Z,96519.69
2023-03-27T18:51:35.571Z,96534.13
2023-03-27T18:54:03.272Z,96480.69
2023-03-27T18:56:30.832Z,96541.28
2023-03-27T18:58:59.742Z,96519.94
2023-03-27T19:01:27.625Z,96534.47
2023-03-27T19:03:55.134Z,96519.50
2023-03-27T19:06:23.817Z,96541.97
2023-03-27T19:08:51.393Z,96506.13
2023-03-27T19:11:18.953Z,96545.19
2023-03-27T19:13:46.489Z,96533.13
2023-03-27T19:16:15.721Z,96507.97
2023-03-27T19:18:43.536Z,96555.28
2023-03-27T19:21:11.100Z,96552.25
2023-03-27T19:23:38.632Z,96546.34
2023-03-27T19:26:10.466Z,96551.19
2023-03-27T19:28:40.250Z,96558.47
2023-03-27T19:31:08.605Z,96555.63
2023-03-27T19:33:38.698Z,96537.97
2023-03-27T19:36:07.023Z,96540.81
2023-03-27T19:38:34.773Z,96551.06
2023-03-27T19:41:03.335Z,96537.97
2023-03-27T19:43:30.986Z,96533.53
2023-03-27T19:46:14.928Z,96468.19
2023-03-27T19:48:47.337Z,96558.94
2023-03-27T19:51:14.917Z,96532.00
2023-03-27T19:53:43.295Z,96559.47
2023-03-27T19:56:10.831Z,96548.00
2023-03-27T19:58:39.368Z,96562.88
2023-03-27T20:01:07.068Z,96556.75
2023-03-27T20:03:37.982Z,96561.06
2023-03-27T20:06:13.221Z,96577.53
2023-03-27T20:08:42.071Z,96557.09
2023-03-27T20:11:09.826Z,96569.91
2023-03-27T20:13:48.890Z,96557.47
2023-03-27T20:20:20.276Z,96570.16
2023-03-27T20:23:09.279Z,96545.63
2023-03-27T20:25:58.153Z,96569.69
2023-03-27T20:28:34.984Z,96560.03
2023-03-27T20:31:27.992Z,96580.03
2023-03-27T20:34:44.932Z,96469.91
2023-03-27T20:43:36.748Z,96576.97
2023-03-27T20:46:29.952Z,96523.53
2023-03-27T20:52:13.469Z,96588.03
2023-03-27T20:54:54.222Z,96586.94
2023-03-27T20:57:51.371Z,96524.25
2023-03-27T21:00:42.581Z,96511.06
2023-03-27T21:03:30.173Z,96586.81
2023-03-27T21:05:59.428Z,96590.69
2023-03-27T21:08:31.389Z,96580.00
2023-03-27T21:10:59.306Z,96585.75
2023-03-27T21:13:28.761Z,96600.50
2023-03-27T21:15:56.568Z,96596.53
2023-03-27T21:18:24.973Z,96599.09
2023-03-27T21:20:53.308Z,96608.66
2023-03-27T21:23:21.806Z,96592.81
2023-03-27T21:25:50.500Z,96616.00
2023-03-27T21:28:18.099Z,96614.47
2023-03-27T21:30:48.541Z,96617.19
2023-03-27T21:33:16.787Z,96609.53
2023-03-27T21:35:46.994Z,96617.25
2023-03-27T21:38:15.409Z,96612.00
2023-03-27T21:40:43.606Z,96621.91
2023-03-27T21:43:11.349Z,96634.78
2023-03-27T21:45:39.011Z,96624.81
2023-03-27T21:48:10.280Z,96616.34
2023-03-27T21:50:37.996Z,96627.09
2023-03-27T21:53:05.788Z,96627.75
2023-03-27T21:55:34.309Z,96638.00
2023-03-27T21:58:01.863Z,96635.44
2023-03-27T22:00:29.308Z,96632.53
2023-03-27T22:02:56.964Z,96638.63
2023-03-27T22:05:25.946Z,96641.16
2023-03-27T22:07:53.415Z,96629.66
2023-03-27T22:10:21.256Z,96609.53
2023-03-27T22:12:48.788Z,96636.38
2023-03-27T22:15:16.306Z,96642.28
2023-03-27T22:17:43.786Z,96636.41
2023-03-27T22:20:11.979Z,96648.59
2023-03-27T22:22:41.503Z,96645.22
2023-03-27T22:25:09.655Z,96634.97
2023-03-27T22:27:37.112Z,96649.88
2023-03-27T22:30:05.625Z,96644.59
2023-03-27T22:32:33.187Z,96642.84
2023-03-27T22:35:00.882Z,96652.47
2023-03-27T22:37:28.293Z,96656.66
2023-03-27T22:39:57.052Z,96660.31
2023-03-27T22:42:24.511Z,96661.94
2023-03-27T22:44:51.965Z,96667.06
2023-03-27T22:47:19.438Z,96654.59
2023-03-27T22:49:46.867Z,96674.44
2023-03-27T22:52:14.468Z,96670.13
2023-03-27T22:54:42.897Z,96670.78
2023-03-27T22:57:11.778Z,96663.09
2023-03-27T22:59:39.302Z,96666.66
2023-03-27T23:02:06.959Z,96681.38
2023-03-27T23:04:34.565Z,96679.34
2023-03-27T23:07:02.235Z,96670.22
2023-03-27T23:09:29.839Z,96686.53
2023-03-27T23:11:57.324Z,96683.00
2023-03-27T23:14:26.236Z,96687.16
2023-03-27T23:16:53.802Z,96683.97
2023-03-27T23:19:21.277Z,96684.47
2023-03-27T23:21:48.704Z,96687.16
2023-03-27T23:24:16.144Z,96684.78
2023-03-27T23:26:43.661Z,96696.13
2023-03-27T23:29:11.948Z,96686.06
2023-03-27T23:31:40.851Z,96693.25
2023-03-27T23:34:08.386Z,96684.28
2023-03-27T23:36:35.865Z,96695.97
2023-03-27T23:39:03.406Z,96696.63
2023-03-27T23:41:31.084Z,96693.56
2023-03-27T23:43:58.559Z,96708.94
2023-03-27T23:46:26.247Z,96712.63
2023-03-27T23:48:55.184Z,96702.72
2023-03-27T23:51:22.645Z,96702.06
2023-03-27T23:53:50.389Z,96711.16
2023-03-27T23:56:18.078Z,96715.50
2023-03-27T23:58:45.548Z,96716.47
